Aérodrome :
LOGIN :

S'inscrire | Disclaimer

   EN    FR    IT 

 










Légende :    VFR   VFR Marginal   IFR   IFR Intensif   IFR Très Intensif
Visi : 
Plafond : 
>= 8 km
>= 3000ft
5 à 8 km
1000 à 3000 ft
1500m à 5 km
500 à 1000 ft
800 à 1500m
200 à 500 ft
< 800m
< 200 ft
Symboles :   Orages  Brouillard  Fortes neiges  Fortes précipitations  Vent > 20 kt
SIGMETs :   Divers  Orages  Givrage  Turbulence  Onde Orograph.  Cendres Volcan.






- Altitude de l'aérodrome : 289 ft


LFYR - Romorantin Pruniers

DERNIER METAR :
  • 151430Z AUTO 23014KT 200V270 9999 BKN041 BKN052 BKN090 27/18 Q1008 TEMPO 24015G25KT 4000 SHRA

METARs EXPIRÉS :
  • 151400Z AUTO 24016KT 200V270 9999 FEW040 28/19 Q1008 TEMPO 24015G25KT 4000 SHRA
  • 151330Z AUTO 23011KT 190V270 CAVOK 27/19 Q1008 TEMPO 24015G25KT 4000 SHRA
  • 151300Z AUTO 23009KT 180V270 9999 FEW039 BKN130 26/18 Q1008 TEMPO 24015G25KT 4000 SHRA
  • 151230Z AUTO 24010KT 210V270 9999 BKN041 BKN120 BKN140 27/19 Q1008 TEMPO 24015G25KT 4000 SHRA
  • 151200Z AUTO 22007KT 180V250 9999 FEW048 BKN120 BKN160 27/20 Q1007 TEMPO 24015G25KT 4000 SHRA SCT008 SCT030CB
  • 151130Z AUTO 20011KT 170V240 9999 SCT048 SCT180 27/19 Q1007 TEMPO 24015G25KT 4000 SHRA SCT008 SCT030CB
  • 151100Z AUTO 16008KT CAVOK 28/19 Q1007 TEMPO 30025G35KT 2000 TSRA SCT008 SCT030CB
  • 151030Z AUTO 13007KT 100V180 CAVOK 27/18 Q1007 TEMPO 30025G35KT 2000 TSRA SCT008 SCT030CB
  • 151000Z AUTO 13006KT 100V160 CAVOK 26/18 Q1007 TEMPO 30025G35KT 4000 RA
  • 150930Z AUTO 14007KT 120V180 CAVOK 24/17 Q1007 TEMPO 30025G35KT 4000 RA

TAF TAF LFYR
Valide du 15 à 15h jusqu'au 16 à 15h UTC


151400Z 1515/1615 24012KT 9999 BKN030
TEMPO 1515/1518 24015G25KT 4000 SHRA



MET'MAP, la Météo Aéronautique d'un coup d'oeil ! - Copyright ORBIFLY Décembre 2007 - Disclaimer

ORBIFLY MET'MAP TEAM :

Programmation & Développement : Alexandra Zaïnal
Sur une idée originale de : Baudouin d'Aumeries
Soutien technique & logistique : Manuel Goepfert
Assistance : Marc-Olivier Méhu




SOURCES & CREDITS :

   NOAA